sensor_id;sensor_type;location;lat;lon;timestamp;P1;durP1;ratioP1;P2;durP2;ratioP2
18899;SDS011;9582;52.018;6.306;2022-11-04T00:01:22;3.43;;;2.40;;
18899;SDS011;9582;52.018;6.306;2022-11-04T00:03:49;3.50;;;2.30;;
18899;SDS011;9582;52.018;6.306;2022-11-04T00:06:18;3.03;;;2.37;;
18899;SDS011;9582;52.018;6.306;2022-11-04T00:08:46;4.10;;;2.67;;
18899;SDS011;9582;52.018;6.306;2022-11-04T00:11:13;5.70;;;2.73;;
18899;SDS011;9582;52.018;6.306;2022-11-04T00:13:57;5.20;;;3.10;;
18899;SDS011;9582;52.018;6.306;2022-11-04T00:16:25;4.70;;;4.20;;
18899;SDS011;9582;52.018;6.306;2022-11-04T00:19:09;8.27;;;4.43;;
18899;SDS011;9582;52.018;6.306;2022-11-04T00:21:36;6.13;;;5.53;;
18899;SDS011;9582;52.018;6.306;2022-11-04T00:24:20;7.27;;;5.47;;
18899;SDS011;9582;52.018;6.306;2022-11-04T00:27:06;7.20;;;6.07;;
18899;SDS011;9582;52.018;6.306;2022-11-04T00:29:50;7.53;;;6.73;;
18899;SDS011;9582;52.018;6.306;2022-11-04T00:32:17;9.73;;;7.87;;
18899;SDS011;9582;52.018;6.306;2022-11-04T00:35:01;9.23;;;7.43;;
18899;SDS011;9582;52.018;6.306;2022-11-04T00:37:29;9.43;;;7.70;;
18899;SDS011;9582;52.018;6.306;2022-11-04T00:39:55;12.67;;;8.10;;
18899;SDS011;9582;52.018;6.306;2022-11-04T00:42:22;10.53;;;9.07;;
18899;SDS011;9582;52.018;6.306;2022-11-04T00:44:48;12.87;;;8.60;;
18899;SDS011;9582;52.018;6.306;2022-11-04T00:47:15;13.37;;;10.47;;
18899;SDS011;9582;52.018;6.306;2022-11-04T00:49:41;13.10;;;9.87;;
18899;SDS011;9582;52.018;6.306;2022-11-04T00:52:08;12.67;;;10.30;;
18899;SDS011;9582;52.018;6.306;2022-11-04T00:54:35;13.70;;;10.93;;
18899;SDS011;9582;52.018;6.306;2022-11-04T00:57:02;12.90;;;10.87;;
18899;SDS011;9582;52.018;6.306;2022-11-04T00:59:29;15.03;;;10.90;;
18899;SDS011;9582;52.018;6.306;2022-11-04T01:01:56;12.30;;;10.70;;
18899;SDS011;9582;52.018;6.306;2022-11-04T01:04:23;12.07;;;10.13;;
18899;SDS011;9582;52.018;6.306;2022-11-04T01:06:49;12.63;;;10.80;;
18899;SDS011;9582;52.018;6.306;2022-11-04T01:09:16;10.90;;;8.80;;
18899;SDS011;9582;52.018;6.306;2022-11-04T01:11:44;10.00;;;8.07;;
18899;SDS011;9582;52.018;6.306;2022-11-04T01:14:11;8.70;;;7.10;;
18899;SDS011;9582;52.018;6.306;2022-11-04T01:16:38;8.83;;;6.03;;
18899;SDS011;9582;52.018;6.306;2022-11-04T01:19:05;6.67;;;5.70;;
18899;SDS011;9582;52.018;6.306;2022-11-04T01:21:32;4.43;;;4.03;;
18899;SDS011;9582;52.018;6.306;2022-11-04T01:23:58;6.10;;;5.07;;
18899;SDS011;9582;52.018;6.306;2022-11-04T01:26:25;6.93;;;4.87;;
18899;SDS011;9582;52.018;6.306;2022-11-04T01:28:55;4.13;;;3.73;;
18899;SDS011;9582;52.018;6.306;2022-11-04T01:31:23;4.87;;;3.90;;
18899;SDS011;9582;52.018;6.306;2022-11-04T01:33:51;4.30;;;3.70;;
18899;SDS011;9582;52.018;6.306;2022-11-04T01:36:19;4.37;;;3.97;;
18899;SDS011;9582;52.018;6.306;2022-11-04T01:38:46;4.80;;;3.30;;
18899;SDS011;9582;52.018;6.306;2022-11-04T01:41:15;5.00;;;3.90;;
18899;SDS011;9582;52.018;6.306;2022-11-04T01:43:44;3.90;;;3.50;;
18899;SDS011;9582;52.018;6.306;2022-11-04T01:46:16;3.33;;;2.90;;
18899;SDS011;9582;52.018;6.306;2022-11-04T01:48:55;3.00;;;2.57;;
18899;SDS011;9582;52.018;6.306;2022-11-04T01:51:27;4.60;;;3.10;;
18899;SDS011;9582;52.018;6.306;2022-11-04T01:53:57;3.37;;;2.90;;
18899;SDS011;9582;52.018;6.306;2022-11-04T01:56:24;4.37;;;3.00;;
18899;SDS011;9582;52.018;6.306;2022-11-04T01:58:53;6.63;;;3.40;;
18899;SDS011;9582;52.018;6.306;2022-11-04T02:01:27;5.20;;;3.97;;
18899;SDS011;9582;52.018;6.306;2022-11-04T02:03:55;6.00;;;4.80;;
18899;SDS011;9582;52.018;6.306;2022-11-04T02:06:45;7.07;;;5.07;;
18899;SDS011;9582;52.018;6.306;2022-11-04T02:09:12;8.40;;;6.53;;
18899;SDS011;9582;52.018;6.306;2022-11-04T02:11:39;8.60;;;6.93;;
18899;SDS011;9582;52.018;6.306;2022-11-04T02:14:24;9.47;;;6.93;;
18899;SDS011;9582;52.018;6.306;2022-11-04T02:16:52;10.40;;;8.17;;
18899;SDS011;9582;52.018;6.306;2022-11-04T02:19:31;8.90;;;7.83;;
18899;SDS011;9582;52.018;6.306;2022-11-04T02:25:16;9.30;;;8.00;;
18899;SDS011;9582;52.018;6.306;2022-11-04T02:28:01;10.57;;;7.53;;
18899;SDS011;9582;52.018;6.306;2022-11-04T02:30:44;7.73;;;6.73;;
18899;SDS011;9582;52.018;6.306;2022-11-04T02:33:19;10.10;;;7.20;;
18899;SDS011;9582;52.018;6.306;2022-11-04T02:35:50;9.60;;;8.30;;
18899;SDS011;9582;52.018;6.306;2022-11-04T02:38:28;9.30;;;8.03;;
18899;SDS011;9582;52.018;6.306;2022-11-04T02:40:59;9.50;;;7.50;;
18899;SDS011;9582;52.018;6.306;2022-11-04T02:43:37;10.20;;;8.00;;
18899;SDS011;9582;52.018;6.306;2022-11-04T02:46:14;12.67;;;9.70;;
18899;SDS011;9582;52.018;6.306;2022-11-04T02:48:44;11.27;;;9.93;;
18899;SDS011;9582;52.018;6.306;2022-11-04T02:51:14;13.23;;;10.23;;
18899;SDS011;9582;52.018;6.306;2022-11-04T02:53:45;13.73;;;11.17;;
18899;SDS011;9582;52.018;6.306;2022-11-04T02:56:15;14.77;;;11.77;;
18899;SDS011;9582;52.018;6.306;2022-11-04T02:58:47;14.00;;;11.00;;
18899;SDS011;9582;52.018;6.306;2022-11-04T03:01:21;17.00;;;12.17;;
18899;SDS011;9582;52.018;6.306;2022-11-04T03:03:52;18.13;;;12.17;;
18899;SDS011;9582;52.018;6.306;2022-11-04T03:06:24;17.50;;;13.27;;
18899;SDS011;9582;52.018;6.306;2022-11-04T03:08:52;16.30;;;13.77;;
18899;SDS011;9582;52.018;6.306;2022-11-04T03:11:21;17.10;;;13.00;;
18899;SDS011;9582;52.018;6.306;2022-11-04T03:13:51;19.30;;;14.37;;
18899;SDS011;9582;52.018;6.306;2022-11-04T03:16:24;18.60;;;13.87;;
18899;SDS011;9582;52.018;6.306;2022-11-04T03:18:59;17.47;;;13.67;;
18899;SDS011;9582;52.018;6.306;2022-11-04T03:21:30;18.57;;;14.60;;
18899;SDS011;9582;52.018;6.306;2022-11-04T03:24:00;18.80;;;15.00;;
18899;SDS011;9582;52.018;6.306;2022-11-04T03:26:28;18.07;;;15.03;;
18899;SDS011;9582;52.018;6.306;2022-11-04T03:29:02;21.83;;;14.97;;
18899;SDS011;9582;52.018;6.306;2022-11-04T03:31:41;20.30;;;15.50;;
18899;SDS011;9582;52.018;6.306;2022-11-04T03:34:12;19.77;;;15.47;;
18899;SDS011;9582;52.018;6.306;2022-11-04T03:36:38;22.20;;;16.00;;
18899;SDS011;9582;52.018;6.306;2022-11-04T03:39:05;25.87;;;16.80;;
18899;SDS011;9582;52.018;6.306;2022-11-04T03:41:33;21.93;;;15.90;;
18899;SDS011;9582;52.018;6.306;2022-11-04T03:44:05;20.33;;;15.93;;
18899;SDS011;9582;52.018;6.306;2022-11-04T03:46:32;20.37;;;16.70;;
18899;SDS011;9582;52.018;6.306;2022-11-04T03:49:00;22.30;;;16.63;;
18899;SDS011;9582;52.018;6.306;2022-11-04T03:51:28;23.40;;;17.03;;
18899;SDS011;9582;52.018;6.306;2022-11-04T03:53:54;24.80;;;17.17;;
18899;SDS011;9582;52.018;6.306;2022-11-04T03:56:26;22.90;;;16.77;;
18899;SDS011;9582;52.018;6.306;2022-11-04T03:59:07;22.13;;;15.93;;
18899;SDS011;9582;52.018;6.306;2022-11-04T04:01:48;21.40;;;15.20;;
18899;SDS011;9582;52.018;6.306;2022-11-04T04:04:22;23.23;;;16.77;;
18899;SDS011;9582;52.018;6.306;2022-11-04T04:06:53;20.63;;;16.20;;
18899;SDS011;9582;52.018;6.306;2022-11-04T04:09:28;23.97;;;16.83;;
18899;SDS011;9582;52.018;6.306;2022-11-04T04:12:01;20.57;;;14.17;;
18899;SDS011;9582;52.018;6.306;2022-11-04T04:14:33;21.67;;;15.83;;
18899;SDS011;9582;52.018;6.306;2022-11-04T04:17:07;20.43;;;15.70;;
18899;SDS011;9582;52.018;6.306;2022-11-04T04:19:43;21.83;;;16.33;;
18899;SDS011;9582;52.018;6.306;2022-11-04T04:22:14;20.43;;;15.30;;
18899;SDS011;9582;52.018;6.306;2022-11-04T04:24:44;19.53;;;14.93;;
18899;SDS011;9582;52.018;6.306;2022-11-04T04:27:31;22.20;;;14.83;;
18899;SDS011;9582;52.018;6.306;2022-11-04T04:30:00;21.40;;;15.70;;
18899;SDS011;9582;52.018;6.306;2022-11-04T04:32:31;21.77;;;15.83;;
18899;SDS011;9582;52.018;6.306;2022-11-04T04:35:02;24.37;;;14.97;;
18899;SDS011;9582;52.018;6.306;2022-11-04T04:37:46;26.03;;;16.80;;
18899;SDS011;9582;52.018;6.306;2022-11-04T04:40:14;23.27;;;14.90;;
18899;SDS011;9582;52.018;6.306;2022-11-04T04:43:03;21.43;;;14.23;;
18899;SDS011;9582;52.018;6.306;2022-11-04T04:45:47;22.40;;;15.83;;
18899;SDS011;9582;52.018;6.306;2022-11-04T04:48:16;22.37;;;14.40;;
18899;SDS011;9582;52.018;6.306;2022-11-04T04:50:45;17.57;;;12.70;;
18899;SDS011;9582;52.018;6.306;2022-11-04T04:53:14;19.87;;;12.57;;
18899;SDS011;9582;52.018;6.306;2022-11-04T04:55:41;16.83;;;10.90;;
18899;SDS011;9582;52.018;6.306;2022-11-04T04:58:07;12.57;;;9.63;;
18899;SDS011;9582;52.018;6.306;2022-11-04T05:00:34;14.83;;;9.40;;
18899;SDS011;9582;52.018;6.306;2022-11-04T05:03:01;12.83;;;8.77;;
18899;SDS011;9582;52.018;6.306;2022-11-04T05:05:27;12.40;;;8.27;;
18899;SDS011;9582;52.018;6.306;2022-11-04T05:08:02;16.10;;;9.53;;
18899;SDS011;9582;52.018;6.306;2022-11-04T05:10:29;11.70;;;9.13;;
18899;SDS011;9582;52.018;6.306;2022-11-04T05:12:55;17.53;;;9.77;;
18899;SDS011;9582;52.018;6.306;2022-11-04T05:15:39;18.70;;;10.77;;
18899;SDS011;9582;52.018;6.306;2022-11-04T05:18:06;17.73;;;10.37;;
18899;SDS011;9582;52.018;6.306;2022-11-04T05:20:32;16.20;;;9.57;;
18899;SDS011;9582;52.018;6.306;2022-11-04T05:23:00;14.53;;;10.10;;
18899;SDS011;9582;52.018;6.306;2022-11-04T05:25:27;15.10;;;9.73;;
18899;SDS011;9582;52.018;6.306;2022-11-04T05:27:53;16.70;;;10.33;;
18899;SDS011;9582;52.018;6.306;2022-11-04T05:30:20;18.13;;;11.40;;
18899;SDS011;9582;52.018;6.306;2022-11-04T05:32:46;15.33;;;10.40;;
18899;SDS011;9582;52.018;6.306;2022-11-04T05:35:13;16.23;;;11.57;;
18899;SDS011;9582;52.018;6.306;2022-11-04T05:37:39;19.30;;;11.70;;
18899;SDS011;9582;52.018;6.306;2022-11-04T05:40:08;15.47;;;11.40;;
18899;SDS011;9582;52.018;6.306;2022-11-04T05:42:35;19.80;;;12.67;;
18899;SDS011;9582;52.018;6.306;2022-11-04T05:45:02;17.30;;;11.47;;
18899;SDS011;9582;52.018;6.306;2022-11-04T05:47:29;14.63;;;10.50;;
18899;SDS011;9582;52.018;6.306;2022-11-04T05:49:56;15.87;;;11.20;;
18899;SDS011;9582;52.018;6.306;2022-11-04T05:52:22;17.03;;;10.50;;
18899;SDS011;9582;52.018;6.306;2022-11-04T05:54:49;19.40;;;10.47;;
18899;SDS011;9582;52.018;6.306;2022-11-04T05:57:17;17.73;;;10.60;;
18899;SDS011;9582;52.018;6.306;2022-11-04T05:59:43;16.17;;;10.33;;
18899;SDS011;9582;52.018;6.306;2022-11-04T06:02:10;17.63;;;11.33;;
18899;SDS011;9582;52.018;6.306;2022-11-04T06:04:36;17.23;;;10.80;;
18899;SDS011;9582;52.018;6.306;2022-11-04T06:07:03;20.23;;;11.40;;
18899;SDS011;9582;52.018;6.306;2022-11-04T06:09:30;15.20;;;10.30;;
18899;SDS011;9582;52.018;6.306;2022-11-04T06:12:04;17.53;;;10.60;;
18899;SDS011;9582;52.018;6.306;2022-11-04T06:14:34;17.33;;;9.57;;
18899;SDS011;9582;52.018;6.306;2022-11-04T06:17:00;13.80;;;8.63;;
18899;SDS011;9582;52.018;6.306;2022-11-04T06:19:27;15.20;;;8.80;;
18899;SDS011;9582;52.018;6.306;2022-11-04T06:21:53;16.47;;;9.23;;
18899;SDS011;9582;52.018;6.306;2022-11-04T06:24:20;13.33;;;8.70;;
18899;SDS011;9582;52.018;6.306;2022-11-04T06:26:47;15.83;;;9.03;;
18899;SDS011;9582;52.018;6.306;2022-11-04T06:29:14;13.97;;;8.47;;
18899;SDS011;9582;52.018;6.306;2022-11-04T06:31:41;13.73;;;8.33;;
18899;SDS011;9582;52.018;6.306;2022-11-04T06:34:08;13.60;;;8.13;;
18899;SDS011;9582;52.018;6.306;2022-11-04T06:36:34;13.30;;;8.50;;
18899;SDS011;9582;52.018;6.306;2022-11-04T06:39:02;15.87;;;8.60;;
18899;SDS011;9582;52.018;6.306;2022-11-04T06:41:29;14.13;;;8.40;;
18899;SDS011;9582;52.018;6.306;2022-11-04T06:43:55;14.73;;;8.80;;
18899;SDS011;9582;52.018;6.306;2022-11-04T06:46:23;20.00;;;8.37;;
18899;SDS011;9582;52.018;6.306;2022-11-04T06:48:52;13.00;;;7.83;;
18899;SDS011;9582;52.018;6.306;2022-11-04T06:51:18;14.53;;;8.87;;
18899;SDS011;9582;52.018;6.306;2022-11-04T06:53:45;15.77;;;8.27;;
18899;SDS011;9582;52.018;6.306;2022-11-04T06:56:11;17.13;;;8.20;;
18899;SDS011;9582;52.018;6.306;2022-11-04T06:58:38;15.67;;;8.37;;
18899;SDS011;9582;52.018;6.306;2022-11-04T07:01:05;14.40;;;7.63;;
18899;SDS011;9582;52.018;6.306;2022-11-04T07:03:31;15.13;;;8.53;;
18899;SDS011;9582;52.018;6.306;2022-11-04T07:05:59;15.63;;;8.77;;
18899;SDS011;9582;52.018;6.306;2022-11-04T07:08:30;12.63;;;8.23;;
18899;SDS011;9582;52.018;6.306;2022-11-04T07:10:57;15.80;;;8.07;;
18899;SDS011;9582;52.018;6.306;2022-11-04T07:13:23;13.10;;;7.73;;
18899;SDS011;9582;52.018;6.306;2022-11-04T07:15:50;14.67;;;7.07;;
18899;SDS011;9582;52.018;6.306;2022-11-04T07:18:16;14.23;;;7.57;;
18899;SDS011;9582;52.018;6.306;2022-11-04T07:20:43;12.43;;;7.47;;
18899;SDS011;9582;52.018;6.306;2022-11-04T07:23:11;14.60;;;7.50;;
18899;SDS011;9582;52.018;6.306;2022-11-04T07:25:37;11.57;;;7.20;;
18899;SDS011;9582;52.018;6.306;2022-11-04T07:28:04;14.37;;;7.07;;
18899;SDS011;9582;52.018;6.306;2022-11-04T07:30:30;13.67;;;7.50;;
18899;SDS011;9582;52.018;6.306;2022-11-04T07:32:57;14.73;;;6.90;;
18899;SDS011;9582;52.018;6.306;2022-11-04T07:35:23;11.20;;;6.73;;
18899;SDS011;9582;52.018;6.306;2022-11-04T07:37:50;12.10;;;6.70;;
18899;SDS011;9582;52.018;6.306;2022-11-04T07:40:18;13.87;;;7.70;;
18899;SDS011;9582;52.018;6.306;2022-11-04T07:42:44;16.50;;;7.30;;
18899;SDS011;9582;52.018;6.306;2022-11-04T07:45:15;13.03;;;7.43;;
18899;SDS011;9582;52.018;6.306;2022-11-04T07:47:42;13.60;;;7.37;;
18899;SDS011;9582;52.018;6.306;2022-11-04T07:50:08;12.40;;;6.37;;
18899;SDS011;9582;52.018;6.306;2022-11-04T07:52:35;14.37;;;6.90;;
18899;SDS011;9582;52.018;6.306;2022-11-04T07:55:02;11.93;;;6.63;;
18899;SDS011;9582;52.018;6.306;2022-11-04T07:57:30;11.43;;;6.27;;
18899;SDS011;9582;52.018;6.306;2022-11-04T07:59:56;10.87;;;6.60;;
18899;SDS011;9582;52.018;6.306;2022-11-04T08:02:23;13.70;;;6.77;;
18899;SDS011;9582;52.018;6.306;2022-11-04T08:04:50;13.10;;;6.83;;
18899;SDS011;9582;52.018;6.306;2022-11-04T08:07:16;10.63;;;6.20;;
18899;SDS011;9582;52.018;6.306;2022-11-04T08:09:43;12.27;;;6.83;;
18899;SDS011;9582;52.018;6.306;2022-11-04T08:12:09;10.47;;;6.33;;
18899;SDS011;9582;52.018;6.306;2022-11-04T08:14:37;13.87;;;6.80;;
18899;SDS011;9582;52.018;6.306;2022-11-04T08:17:04;14.17;;;6.77;;
18899;SDS011;9582;52.018;6.306;2022-11-04T08:19:30;10.50;;;6.57;;
18899;SDS011;9582;52.018;6.306;2022-11-04T08:21:57;13.67;;;6.87;;
18899;SDS011;9582;52.018;6.306;2022-11-04T08:24:26;11.73;;;7.50;;
18899;SDS011;9582;52.018;6.306;2022-11-04T08:26:53;14.23;;;7.50;;
18899;SDS011;9582;52.018;6.306;2022-11-04T08:29:19;13.03;;;6.73;;
18899;SDS011;9582;52.018;6.306;2022-11-04T08:31:47;12.30;;;6.70;;
18899;SDS011;9582;52.018;6.306;2022-11-04T08:34:14;16.03;;;7.40;;
18899;SDS011;9582;52.018;6.306;2022-11-04T08:36:42;14.23;;;6.63;;
18899;SDS011;9582;52.018;6.306;2022-11-04T08:39:09;11.03;;;6.67;;
18899;SDS011;9582;52.018;6.306;2022-11-04T08:41:37;12.27;;;5.93;;
18899;SDS011;9582;52.018;6.306;2022-11-04T08:44:06;9.50;;;5.47;;
18899;SDS011;9582;52.018;6.306;2022-11-04T08:46:34;12.17;;;6.53;;
18899;SDS011;9582;52.018;6.306;2022-11-04T08:49:03;8.23;;;5.87;;
18899;SDS011;9582;52.018;6.306;2022-11-04T08:51:31;9.70;;;6.10;;
18899;SDS011;9582;52.018;6.306;2022-11-04T08:53:59;8.37;;;5.73;;
18899;SDS011;9582;52.018;6.306;2022-11-04T08:56:27;11.73;;;5.30;;
18899;SDS011;9582;52.018;6.306;2022-11-04T08:58:55;9.70;;;4.77;;
18899;SDS011;9582;52.018;6.306;2022-11-04T09:01:23;11.10;;;5.00;;
18899;SDS011;9582;52.018;6.306;2022-11-04T09:03:50;10.83;;;5.00;;
18899;SDS011;9582;52.018;6.306;2022-11-04T09:06:20;11.70;;;5.10;;
18899;SDS011;9582;52.018;6.306;2022-11-04T09:08:50;11.77;;;6.07;;
18899;SDS011;9582;52.018;6.306;2022-11-04T09:11:19;13.20;;;5.50;;
18899;SDS011;9582;52.018;6.306;2022-11-04T09:13:46;10.10;;;4.43;;
18899;SDS011;9582;52.018;6.306;2022-11-04T09:16:13;9.07;;;4.77;;
18899;SDS011;9582;52.018;6.306;2022-11-04T09:18:40;9.83;;;5.00;;
18899;SDS011;9582;52.018;6.306;2022-11-04T09:21:07;8.97;;;4.60;;
18899;SDS011;9582;52.018;6.306;2022-11-04T09:23:36;8.90;;;5.10;;
18899;SDS011;9582;52.018;6.306;2022-11-04T09:26:04;13.33;;;5.10;;
18899;SDS011;9582;52.018;6.306;2022-11-04T09:28:32;7.40;;;4.83;;
18899;SDS011;9582;52.018;6.306;2022-11-04T09:30:58;7.50;;;4.73;;
18899;SDS011;9582;52.018;6.306;2022-11-04T09:33:25;10.77;;;5.30;;
18899;SDS011;9582;52.018;6.306;2022-11-04T09:35:56;14.23;;;5.30;;
18899;SDS011;9582;52.018;6.306;2022-11-04T09:38:22;12.23;;;4.97;;
18899;SDS011;9582;52.018;6.306;2022-11-04T09:40:53;10.60;;;5.50;;
18899;SDS011;9582;52.018;6.306;2022-11-04T09:43:27;8.97;;;4.63;;
18899;SDS011;9582;52.018;6.306;2022-11-04T09:46:02;8.07;;;4.40;;
18899;SDS011;9582;52.018;6.306;2022-11-04T09:48:31;7.83;;;5.00;;
18899;SDS011;9582;52.018;6.306;2022-11-04T09:51:01;9.47;;;4.87;;
18899;SDS011;9582;52.018;6.306;2022-11-04T09:53:33;10.83;;;4.60;;
18899;SDS011;9582;52.018;6.306;2022-11-04T09:56:09;10.80;;;5.00;;
18899;SDS011;9582;52.018;6.306;2022-11-04T09:58:41;10.10;;;4.93;;
18899;SDS011;9582;52.018;6.306;2022-11-04T10:01:11;9.33;;;4.73;;
18899;SDS011;9582;52.018;6.306;2022-11-04T10:03:50;10.00;;;4.27;;
18899;SDS011;9582;52.018;6.306;2022-11-04T10:06:29;12.07;;;4.70;;
18899;SDS011;9582;52.018;6.306;2022-11-04T10:09:04;11.30;;;5.00;;
18899;SDS011;9582;52.018;6.306;2022-11-04T10:11:44;8.63;;;4.93;;
18899;SDS011;9582;52.018;6.306;2022-11-04T10:14:25;11.40;;;5.27;;
18899;SDS011;9582;52.018;6.306;2022-11-04T10:17:05;12.10;;;5.67;;
18899;SDS011;9582;52.018;6.306;2022-11-04T10:19:45;12.67;;;6.73;;
18899;SDS011;9582;52.018;6.306;2022-11-04T10:22:22;16.23;;;8.37;;
18899;SDS011;9582;52.018;6.306;2022-11-04T10:24:57;10.30;;;7.97;;
18899;SDS011;9582;52.018;6.306;2022-11-04T10:27:35;11.53;;;6.70;;
18899;SDS011;9582;52.018;6.306;2022-11-04T10:30:06;14.30;;;7.47;;
18899;SDS011;9582;52.018;6.306;2022-11-04T10:32:40;13.57;;;8.70;;
18899;SDS011;9582;52.018;6.306;2022-11-04T10:35:16;13.23;;;8.43;;
18899;SDS011;9582;52.018;6.306;2022-11-04T10:37:52;13.67;;;8.43;;
18899;SDS011;9582;52.018;6.306;2022-11-04T10:40:22;14.87;;;8.57;;
18899;SDS011;9582;52.018;6.306;2022-11-04T10:42:51;14.40;;;8.80;;
18899;SDS011;9582;52.018;6.306;2022-11-04T10:45:19;13.17;;;8.03;;
18899;SDS011;9582;52.018;6.306;2022-11-04T10:47:54;17.33;;;10.47;;
18899;SDS011;9582;52.018;6.306;2022-11-04T10:50:27;16.67;;;10.70;;
18899;SDS011;9582;52.018;6.306;2022-11-04T10:53:08;14.20;;;9.90;;
18899;SDS011;9582;52.018;6.306;2022-11-04T10:55:40;17.60;;;10.60;;
18899;SDS011;9582;52.018;6.306;2022-11-04T10:58:16;15.40;;;11.50;;
18899;SDS011;9582;52.018;6.306;2022-11-04T11:00:46;20.27;;;12.13;;
18899;SDS011;9582;52.018;6.306;2022-11-04T11:03:21;18.57;;;11.47;;
18899;SDS011;9582;52.018;6.306;2022-11-04T11:05:53;14.20;;;11.63;;
18899;SDS011;9582;52.018;6.306;2022-11-04T11:08:36;18.60;;;11.90;;
18899;SDS011;9582;52.018;6.306;2022-11-04T11:11:03;15.90;;;11.47;;
18899;SDS011;9582;52.018;6.306;2022-11-04T11:13:34;12.20;;;10.43;;
18899;SDS011;9582;52.018;6.306;2022-11-04T11:16:04;14.87;;;11.47;;
18899;SDS011;9582;52.018;6.306;2022-11-04T11:18:32;13.00;;;10.97;;
18899;SDS011;9582;52.018;6.306;2022-11-04T11:21:09;16.97;;;10.77;;
18899;SDS011;9582;52.018;6.306;2022-11-04T11:23:38;20.33;;;12.30;;
18899;SDS011;9582;52.018;6.306;2022-11-04T11:26:07;17.10;;;11.17;;
18899;SDS011;9582;52.018;6.306;2022-11-04T11:28:36;14.73;;;10.90;;
18899;SDS011;9582;52.018;6.306;2022-11-04T11:31:06;14.97;;;10.30;;
18899;SDS011;9582;52.018;6.306;2022-11-04T11:33:45;14.10;;;9.67;;
18899;SDS011;9582;52.018;6.306;2022-11-04T11:36:15;15.37;;;10.00;;
18899;SDS011;9582;52.018;6.306;2022-11-04T11:38:58;13.30;;;10.20;;
18899;SDS011;9582;52.018;6.306;2022-11-04T11:41:30;15.27;;;10.37;;
18899;SDS011;9582;52.018;6.306;2022-11-04T11:44:00;15.20;;;10.33;;
18899;SDS011;9582;52.018;6.306;2022-11-04T11:46:32;14.63;;;11.13;;
18899;SDS011;9582;52.018;6.306;2022-11-04T11:49:00;16.53;;;10.43;;
18899;SDS011;9582;52.018;6.306;2022-11-04T11:51:30;19.17;;;10.73;;
18899;SDS011;9582;52.018;6.306;2022-11-04T11:54:18;18.53;;;11.17;;
18899;SDS011;9582;52.018;6.306;2022-11-04T11:56:48;16.90;;;11.13;;
18899;SDS011;9582;52.018;6.306;2022-11-04T11:59:27;14.13;;;10.13;;
18899;SDS011;9582;52.018;6.306;2022-11-04T12:02:03;16.47;;;11.53;;
18899;SDS011;9582;52.018;6.306;2022-11-04T12:04:45;17.83;;;11.67;;
18899;SDS011;9582;52.018;6.306;2022-11-04T12:07:14;14.20;;;10.73;;
18899;SDS011;9582;52.018;6.306;2022-11-04T12:09:49;16.97;;;10.90;;
18899;SDS011;9582;52.018;6.306;2022-11-04T12:12:26;14.52;;;11.07;;
18899;SDS011;9582;52.018;6.306;2022-11-04T12:15:15;19.93;;;11.90;;
18899;SDS011;9582;52.018;6.306;2022-11-04T12:17:57;21.90;;;11.97;;
18899;SDS011;9582;52.018;6.306;2022-11-04T12:20:38;17.73;;;11.10;;
18899;SDS011;9582;52.018;6.306;2022-11-04T12:23:16;16.67;;;12.07;;
18899;SDS011;9582;52.018;6.306;2022-11-04T12:25:55;15.13;;;11.67;;
18899;SDS011;9582;52.018;6.306;2022-11-04T12:28:33;13.55;;;11.38;;
18899;SDS011;9582;52.018;6.306;2022-11-04T12:31:12;16.98;;;11.38;;
18899;SDS011;9582;52.018;6.306;2022-11-04T12:33:48;14.40;;;11.68;;
18899;SDS011;9582;52.018;6.306;2022-11-04T12:36:28;18.98;;;11.80;;
18899;SDS011;9582;52.018;6.306;2022-11-04T12:42:00;15.52;;;10.40;;
18899;SDS011;9582;52.018;6.306;2022-11-04T12:44:34;19.98;;;11.25;;
18899;SDS011;9582;52.018;6.306;2022-11-04T12:47:14;22.33;;;10.63;;
18899;SDS011;9582;52.018;6.306;2022-11-04T12:49:52;13.02;;;9.82;;
18899;SDS011;9582;52.018;6.306;2022-11-04T12:52:33;16.25;;;10.25;;
18899;SDS011;9582;52.018;6.306;2022-11-04T12:55:15;16.65;;;10.55;;
18899;SDS011;9582;52.018;6.306;2022-11-04T12:57:54;16.30;;;10.27;;
18899;SDS011;9582;52.018;6.306;2022-11-04T13:00:27;15.88;;;11.80;;
18899;SDS011;9582;52.018;6.306;2022-11-04T13:02:59;12.77;;;10.27;;
18899;SDS011;9582;52.018;6.306;2022-11-04T13:05:32;17.27;;;12.68;;
18899;SDS011;9582;52.018;6.306;2022-11-04T13:08:08;16.33;;;12.67;;
18899;SDS011;9582;52.018;6.306;2022-11-04T13:10:39;19.25;;;11.65;;
18899;SDS011;9582;52.018;6.306;2022-11-04T13:13:13;17.08;;;11.95;;
18899;SDS011;9582;52.018;6.306;2022-11-04T13:15:44;18.43;;;13.30;;
18899;SDS011;9582;52.018;6.306;2022-11-04T13:18:15;18.05;;;14.02;;
18899;SDS011;9582;52.018;6.306;2022-11-04T13:20:45;16.45;;;11.30;;
18899;SDS011;9582;52.018;6.306;2022-11-04T13:23:17;13.52;;;11.13;;
18899;SDS011;9582;52.018;6.306;2022-11-04T13:25:48;13.18;;;10.30;;
18899;SDS011;9582;52.018;6.306;2022-11-04T13:28:16;14.73;;;11.40;;
18899;SDS011;9582;52.018;6.306;2022-11-04T13:30:46;13.57;;;11.63;;
18899;SDS011;9582;52.018;6.306;2022-11-04T13:33:23;17.10;;;12.77;;
18899;SDS011;9582;52.018;6.306;2022-11-04T13:35:59;15.93;;;11.90;;
18899;SDS011;9582;52.018;6.306;2022-11-04T13:38:33;17.30;;;11.40;;
18899;SDS011;9582;52.018;6.306;2022-11-04T13:41:13;18.20;;;11.68;;
18899;SDS011;9582;52.018;6.306;2022-11-04T13:43:56;16.02;;;12.18;;
18899;SDS011;9582;52.018;6.306;2022-11-04T13:46:27;17.80;;;12.15;;
18899;SDS011;9582;52.018;6.306;2022-11-04T13:49:01;17.15;;;12.25;;
18899;SDS011;9582;52.018;6.306;2022-11-04T13:51:33;16.05;;;12.55;;
18899;SDS011;9582;52.018;6.306;2022-11-04T13:54:03;19.25;;;12.90;;
18899;SDS011;9582;52.018;6.306;2022-11-04T13:56:32;15.15;;;12.57;;
18899;SDS011;9582;52.018;6.306;2022-11-04T13:59:04;15.57;;;12.45;;
18899;SDS011;9582;52.018;6.306;2022-11-04T14:01:43;13.55;;;12.02;;
18899;SDS011;9582;52.018;6.306;2022-11-04T14:06:56;14.00;;;11.77;;
18899;SDS011;9582;52.018;6.306;2022-11-04T14:12:26;16.25;;;11.02;;
18899;SDS011;9582;52.018;6.306;2022-11-04T14:18:06;12.45;;;10.65;;
18899;SDS011;9582;52.018;6.306;2022-11-04T14:21:04;14.75;;;11.07;;
18899;SDS011;9582;52.018;6.306;2022-11-04T14:23:33;13.82;;;11.60;;
18899;SDS011;9582;52.018;6.306;2022-11-04T14:26:02;16.08;;;11.57;;
18899;SDS011;9582;52.018;6.306;2022-11-04T14:28:30;14.73;;;10.98;;
18899;SDS011;9582;52.018;6.306;2022-11-04T14:30:59;13.05;;;10.90;;
18899;SDS011;9582;52.018;6.306;2022-11-04T14:33:31;11.75;;;10.45;;
18899;SDS011;9582;52.018;6.306;2022-11-04T14:38:54;13.00;;;10.70;;
18899;SDS011;9582;52.018;6.306;2022-11-04T14:41:29;15.38;;;10.63;;
18899;SDS011;9582;52.018;6.306;2022-11-04T14:43:59;13.60;;;10.73;;
18899;SDS011;9582;52.018;6.306;2022-11-04T14:46:29;18.70;;;13.00;;
18899;SDS011;9582;52.018;6.306;2022-11-04T14:48:59;13.40;;;12.05;;
18899;SDS011;9582;52.018;6.306;2022-11-04T14:51:28;13.33;;;11.97;;
18899;SDS011;9582;52.018;6.306;2022-11-04T14:53:58;16.20;;;12.40;;
18899;SDS011;9582;52.018;6.306;2022-11-04T14:56:29;17.10;;;12.47;;
18899;SDS011;9582;52.018;6.306;2022-11-04T14:58:57;17.07;;;13.70;;
18899;SDS011;9582;52.018;6.306;2022-11-04T15:01:26;16.37;;;13.00;;
18899;SDS011;9582;52.018;6.306;2022-11-04T15:03:55;18.60;;;13.30;;
18899;SDS011;9582;52.018;6.306;2022-11-04T15:06:29;17.45;;;12.35;;
18899;SDS011;9582;52.018;6.306;2022-11-04T15:08:56;17.73;;;12.73;;
18899;SDS011;9582;52.018;6.306;2022-11-04T15:11:25;15.87;;;12.60;;
18899;SDS011;9582;52.018;6.306;2022-11-04T15:14:14;16.53;;;12.97;;
18899;SDS011;9582;52.018;6.306;2022-11-04T15:16:43;15.23;;;13.63;;
18899;SDS011;9582;52.018;6.306;2022-11-04T15:19:13;16.52;;;13.27;;
18899;SDS011;9582;52.018;6.306;2022-11-04T15:21:48;16.20;;;12.87;;
18899;SDS011;9582;52.018;6.306;2022-11-04T15:24:15;18.93;;;13.90;;